sensor_id;sensor_type;location;lat;lon;timestamp;P1;durP1;ratioP1;P2;durP2;ratioP2
53714;SDS011;39608;55.630;37.864;2023-07-22T00:02:52;2.55;;;1.48;;
53714;SDS011;39608;55.630;37.864;2023-07-22T00:07:54;8.40;;;1.80;;
53714;SDS011;39608;55.630;37.864;2023-07-22T00:12:58;1.63;;;1.15;;
53714;SDS011;39608;55.630;37.864;2023-07-22T00:18:00;6.35;;;1.63;;
53714;SDS011;39608;55.630;37.864;2023-07-22T00:23:02;3.22;;;1.42;;
53714;SDS011;39608;55.630;37.864;2023-07-22T00:28:06;2.72;;;1.42;;
53714;SDS011;39608;55.630;37.864;2023-07-22T00:33:08;3.20;;;1.08;;
53714;SDS011;39608;55.630;37.864;2023-07-22T00:38:10;2.35;;;1.35;;
53714;SDS011;39608;55.630;37.864;2023-07-22T00:43:13;1.88;;;1.40;;
53714;SDS011;39608;55.630;37.864;2023-07-22T00:48:16;1.88;;;1.48;;
53714;SDS011;39608;55.630;37.864;2023-07-22T00:53:19;9.05;;;1.60;;
53714;SDS011;39608;55.630;37.864;2023-07-22T00:58:22;2.65;;;1.23;;
53714;SDS011;39608;55.630;37.864;2023-07-22T01:03:24;3.25;;;1.38;;
53714;SDS011;39608;55.630;37.864;2023-07-22T01:08:27;2.58;;;1.42;;
53714;SDS011;39608;55.630;37.864;2023-07-22T01:13:30;2.15;;;1.50;;
53714;SDS011;39608;55.630;37.864;2023-07-22T01:18:32;1.50;;;1.33;;
53714;SDS011;39608;55.630;37.864;2023-07-22T01:23:36;8.05;;;1.48;;
53714;SDS011;39608;55.630;37.864;2023-07-22T01:28:40;3.50;;;1.48;;
53714;SDS011;39608;55.630;37.864;2023-07-22T01:33:42;2.45;;;1.40;;
53714;SDS011;39608;55.630;37.864;2023-07-22T01:38:46;2.92;;;1.55;;
53714;SDS011;39608;55.630;37.864;2023-07-22T01:43:48;3.70;;;1.42;;
53714;SDS011;39608;55.630;37.864;2023-07-22T01:48:50;2.72;;;1.50;;
53714;SDS011;39608;55.630;37.864;2023-07-22T01:53:54;7.93;;;1.98;;
53714;SDS011;39608;55.630;37.864;2023-07-22T01:58:57;2.58;;;1.33;;
53714;SDS011;39608;55.630;37.864;2023-07-22T02:03:59;5.72;;;1.45;;
53714;SDS011;39608;55.630;37.864;2023-07-22T02:09:03;13.23;;;1.33;;
53714;SDS011;39608;55.630;37.864;2023-07-22T02:14:08;3.17;;;1.48;;
53714;SDS011;39608;55.630;37.864;2023-07-22T02:19:11;5.55;;;1.30;;
53714;SDS011;39608;55.630;37.864;2023-07-22T02:24:14;3.22;;;1.65;;
53714;SDS011;39608;55.630;37.864;2023-07-22T02:29:16;5.25;;;1.23;;
53714;SDS011;39608;55.630;37.864;2023-07-22T02:34:20;2.72;;;1.40;;
53714;SDS011;39608;55.630;37.864;2023-07-22T02:39:23;11.65;;;3.45;;
53714;SDS011;39608;55.630;37.864;2023-07-22T02:44:25;1.73;;;1.25;;
53714;SDS011;39608;55.630;37.864;2023-07-22T02:49:27;5.57;;;1.98;;
53714;SDS011;39608;55.630;37.864;2023-07-22T02:54:31;1.25;;;1.00;;
53714;SDS011;39608;55.630;37.864;2023-07-22T02:59:33;4.43;;;1.30;;
53714;SDS011;39608;55.630;37.864;2023-07-22T03:04:35;1.58;;;1.30;;
53714;SDS011;39608;55.630;37.864;2023-07-22T03:09:38;3.47;;;1.10;;
53714;SDS011;39608;55.630;37.864;2023-07-22T03:14:40;5.25;;;1.25;;
53714;SDS011;39608;55.630;37.864;2023-07-22T03:19:42;4.72;;;1.30;;
53714;SDS011;39608;55.630;37.864;2023-07-22T03:24:46;1.67;;;1.05;;
53714;SDS011;39608;55.630;37.864;2023-07-22T03:29:48;2.15;;;1.38;;
53714;SDS011;39608;55.630;37.864;2023-07-22T03:34:51;1.30;;;1.20;;
53714;SDS011;39608;55.630;37.864;2023-07-22T03:39:54;3.03;;;1.33;;
53714;SDS011;39608;55.630;37.864;2023-07-22T03:44:56;2.35;;;1.00;;
53714;SDS011;39608;55.630;37.864;2023-07-22T03:49:58;6.35;;;0.90;;
53714;SDS011;39608;55.630;37.864;2023-07-22T03:55:02;2.58;;;1.00;;
53714;SDS011;39608;55.630;37.864;2023-07-22T04:00:06;2.60;;;0.90;;
53714;SDS011;39608;55.630;37.864;2023-07-22T04:05:10;1.00;;;0.88;;
53714;SDS011;39608;55.630;37.864;2023-07-22T04:10:14;1.90;;;0.73;;
53714;SDS011;39608;55.630;37.864;2023-07-22T04:15:16;1.13;;;0.80;;
53714;SDS011;39608;55.630;37.864;2023-07-22T04:20:18;2.13;;;1.00;;
53714;SDS011;39608;55.630;37.864;2023-07-22T04:25:22;1.77;;;0.95;;
53714;SDS011;39608;55.630;37.864;2023-07-22T04:30:24;0.88;;;0.65;;
53714;SDS011;39608;55.630;37.864;2023-07-22T04:35:26;1.58;;;1.00;;
53714;SDS011;39608;55.630;37.864;2023-07-22T04:40:30;1.17;;;0.70;;
53714;SDS011;39608;55.630;37.864;2023-07-22T04:45:32;1.73;;;0.98;;
53714;SDS011;39608;55.630;37.864;2023-07-22T04:50:34;6.97;;;0.98;;
53714;SDS011;39608;55.630;37.864;2023-07-22T04:55:38;5.32;;;1.30;;
53714;SDS011;39608;55.630;37.864;2023-07-22T05:00:40;3.70;;;1.13;;
53714;SDS011;39608;55.630;37.864;2023-07-22T05:05:43;2.17;;;0.82;;
53714;SDS011;39608;55.630;37.864;2023-07-22T05:10:46;2.40;;;0.90;;
53714;SDS011;39608;55.630;37.864;2023-07-22T05:15:48;3.67;;;1.20;;
53714;SDS011;39608;55.630;37.864;2023-07-22T05:20:50;5.93;;;1.00;;
53714;SDS011;39608;55.630;37.864;2023-07-22T05:25:54;2.85;;;0.95;;
53714;SDS011;39608;55.630;37.864;2023-07-22T05:30:56;7.75;;;1.40;;
53714;SDS011;39608;55.630;37.864;2023-07-22T05:35:58;3.80;;;1.38;;
53714;SDS011;39608;55.630;37.864;2023-07-22T05:41:01;2.50;;;1.38;;
53714;SDS011;39608;55.630;37.864;2023-07-22T05:46:03;2.72;;;0.93;;
53714;SDS011;39608;55.630;37.864;2023-07-22T05:51:05;1.77;;;1.02;;
53714;SDS011;39608;55.630;37.864;2023-07-22T05:56:09;3.42;;;1.20;;
53714;SDS011;39608;55.630;37.864;2023-07-22T06:01:11;2.00;;;1.05;;
53714;SDS011;39608;55.630;37.864;2023-07-22T06:06:15;3.85;;;1.10;;
53714;SDS011;39608;55.630;37.864;2023-07-22T06:11:18;3.70;;;1.02;;
53714;SDS011;39608;55.630;37.864;2023-07-22T06:16:20;4.40;;;0.95;;
53714;SDS011;39608;55.630;37.864;2023-07-22T06:21:22;1.20;;;0.93;;
53714;SDS011;39608;55.630;37.864;2023-07-22T06:26:26;2.58;;;0.90;;
53714;SDS011;39608;55.630;37.864;2023-07-22T06:31:28;2.05;;;1.05;;
53714;SDS011;39608;55.630;37.864;2023-07-22T06:36:30;4.30;;;0.85;;
53714;SDS011;39608;55.630;37.864;2023-07-22T06:41:34;3.33;;;0.90;;
53714;SDS011;39608;55.630;37.864;2023-07-22T06:46:36;3.58;;;1.58;;
53714;SDS011;39608;55.630;37.864;2023-07-22T06:51:38;4.63;;;0.95;;
53714;SDS011;39608;55.630;37.864;2023-07-22T06:56:41;2.17;;;0.80;;
53714;SDS011;39608;55.630;37.864;2023-07-22T07:01:43;2.97;;;1.08;;
53714;SDS011;39608;55.630;37.864;2023-07-22T07:06:45;2.97;;;0.90;;
53714;SDS011;39608;55.630;37.864;2023-07-22T07:11:49;2.10;;;0.90;;
53714;SDS011;39608;55.630;37.864;2023-07-22T07:16:52;3.03;;;0.90;;
53714;SDS011;39608;55.630;37.864;2023-07-22T07:21:55;2.70;;;0.90;;
53714;SDS011;39608;55.630;37.864;2023-07-22T07:26:58;2.67;;;1.20;;
53714;SDS011;39608;55.630;37.864;2023-07-22T07:32:00;3.40;;;0.70;;
53714;SDS011;39608;55.630;37.864;2023-07-22T07:37:02;6.38;;;1.05;;
53714;SDS011;39608;55.630;37.864;2023-07-22T07:42:06;1.90;;;1.10;;
53714;SDS011;39608;55.630;37.864;2023-07-22T07:47:08;2.95;;;0.85;;
53714;SDS011;39608;55.630;37.864;2023-07-22T07:52:10;3.92;;;0.73;;
53714;SDS011;39608;55.630;37.864;2023-07-22T07:57:14;2.25;;;0.75;;
53714;SDS011;39608;55.630;37.864;2023-07-22T08:02:16;0.98;;;0.70;;
53714;SDS011;39608;55.630;37.864;2023-07-22T08:07:18;0.95;;;0.70;;
53714;SDS011;39608;55.630;37.864;2023-07-22T08:12:22;2.60;;;0.63;;
53714;SDS011;39608;55.630;37.864;2023-07-22T08:17:24;1.33;;;0.80;;
53714;SDS011;39608;55.630;37.864;2023-07-22T08:22:27;1.33;;;0.70;;
53714;SDS011;39608;55.630;37.864;2023-07-22T08:27:30;1.67;;;0.70;;
53714;SDS011;39608;55.630;37.864;2023-07-22T08:32:32;3.22;;;0.90;;
53714;SDS011;39608;55.630;37.864;2023-07-22T08:37:34;2.15;;;0.68;;
53714;SDS011;39608;55.630;37.864;2023-07-22T08:42:38;1.00;;;0.68;;
53714;SDS011;39608;55.630;37.864;2023-07-22T08:47:43;3.55;;;0.82;;
53714;SDS011;39608;55.630;37.864;2023-07-22T08:52:47;4.43;;;0.65;;
53714;SDS011;39608;55.630;37.864;2023-07-22T08:57:51;1.48;;;0.80;;
53714;SDS011;39608;55.630;37.864;2023-07-22T09:02:53;1.45;;;1.00;;
53714;SDS011;39608;55.630;37.864;2023-07-22T09:07:56;1.10;;;0.80;;
53714;SDS011;39608;55.630;37.864;2023-07-22T09:13:00;2.90;;;0.70;;
53714;SDS011;39608;55.630;37.864;2023-07-22T09:18:02;1.07;;;0.70;;
53714;SDS011;39608;55.630;37.864;2023-07-22T09:23:08;2.10;;;0.68;;
53714;SDS011;39608;55.630;37.864;2023-07-22T09:28:12;0.68;;;0.60;;
53714;SDS011;39608;55.630;37.864;2023-07-22T09:33:19;3.65;;;0.60;;
53714;SDS011;39608;55.630;37.864;2023-07-22T09:38:23;1.17;;;0.47;;
53714;SDS011;39608;55.630;37.864;2023-07-22T09:43:27;3.83;;;0.60;;
53714;SDS011;39608;55.630;37.864;2023-07-22T09:48:33;0.47;;;0.40;;
53714;SDS011;39608;55.630;37.864;2023-07-22T09:53:44;1.45;;;0.80;;
53714;SDS011;39608;55.630;37.864;2023-07-22T09:58:48;4.05;;;0.90;;
53714;SDS011;39608;55.630;37.864;2023-07-22T10:03:52;1.15;;;0.50;;
53714;SDS011;39608;55.630;37.864;2023-07-22T10:08:56;1.92;;;0.52;;
53714;SDS011;39608;55.630;37.864;2023-07-22T10:19:03;2.83;;;0.63;;
53714;SDS011;39608;55.630;37.864;2023-07-22T10:24:07;1.33;;;0.60;;
53714;SDS011;39608;55.630;37.864;2023-07-22T10:34:14;2.20;;;0.93;;
53714;SDS011;39608;55.630;37.864;2023-07-22T10:39:24;2.25;;;0.65;;
53714;SDS011;39608;55.630;37.864;2023-07-22T10:44:29;1.17;;;0.63;;
53714;SDS011;39608;55.630;37.864;2023-07-22T10:49:43;0.45;;;0.45;;
53714;SDS011;39608;55.630;37.864;2023-07-22T10:54:47;1.27;;;0.50;;
53714;SDS011;39608;55.630;37.864;2023-07-22T10:59:51;3.40;;;0.65;;
53714;SDS011;39608;55.630;37.864;2023-07-22T11:04:56;1.35;;;0.30;;
53714;SDS011;39608;55.630;37.864;2023-07-22T11:10:10;3.65;;;0.65;;
53714;SDS011;39608;55.630;37.864;2023-07-22T11:15:17;0.85;;;0.40;;
53714;SDS011;39608;55.630;37.864;2023-07-22T11:20:21;3.22;;;0.50;;
53714;SDS011;39608;55.630;37.864;2023-07-22T11:25:24;2.03;;;0.90;;
53714;SDS011;39608;55.630;37.864;2023-07-22T11:30:29;2.03;;;0.70;;
53714;SDS011;39608;55.630;37.864;2023-07-22T11:35:31;3.03;;;0.80;;
53714;SDS011;39608;55.630;37.864;2023-07-22T11:40:33;2.65;;;0.70;;
53714;SDS011;39608;55.630;37.864;2023-07-22T11:45:39;3.60;;;0.60;;
53714;SDS011;39608;55.630;37.864;2023-07-22T11:50:41;1.88;;;0.75;;
53714;SDS011;39608;55.630;37.864;2023-07-22T11:55:44;6.70;;;0.88;;
53714;SDS011;39608;55.630;37.864;2023-07-22T12:00:47;4.85;;;1.08;;
53714;SDS011;39608;55.630;37.864;2023-07-22T12:06:05;1.98;;;0.55;;
53714;SDS011;39608;55.630;37.864;2023-07-22T12:11:08;1.55;;;0.82;;
53714;SDS011;39608;55.630;37.864;2023-07-22T12:16:22;0.73;;;0.63;;
53714;SDS011;39608;55.630;37.864;2023-07-22T12:21:25;5.90;;;1.00;;
53714;SDS011;39608;55.630;37.864;2023-07-22T12:26:29;2.97;;;0.93;;
53714;SDS011;39608;55.630;37.864;2023-07-22T12:31:32;1.20;;;0.60;;
53714;SDS011;39608;55.630;37.864;2023-07-22T12:36:34;4.03;;;0.80;;
53714;SDS011;39608;55.630;37.864;2023-07-22T12:41:37;6.40;;;1.02;;
53714;SDS011;39608;55.630;37.864;2023-07-22T12:46:41;3.05;;;0.77;;
53714;SDS011;39608;55.630;37.864;2023-07-22T12:51:43;2.45;;;1.02;;
53714;SDS011;39608;55.630;37.864;2023-07-22T12:56:45;2.15;;;1.00;;
53714;SDS011;39608;55.630;37.864;2023-07-22T13:01:48;3.75;;;1.02;;
53714;SDS011;39608;55.630;37.864;2023-07-22T13:06:50;4.85;;;1.30;;
53714;SDS011;39608;55.630;37.864;2023-07-22T13:11:53;1.45;;;0.90;;
53714;SDS011;39608;55.630;37.864;2023-07-22T13:16:56;3.55;;;1.17;;
53714;SDS011;39608;55.630;37.864;2023-07-22T13:21:58;5.82;;;1.15;;
53714;SDS011;39608;55.630;37.864;2023-07-22T13:27:00;5.57;;;1.20;;
53714;SDS011;39608;55.630;37.864;2023-07-22T13:32:04;3.92;;;1.00;;
53714;SDS011;39608;55.630;37.864;2023-07-22T13:37:07;3.08;;;0.90;;
53714;SDS011;39608;55.630;37.864;2023-07-22T13:42:12;0.77;;;0.73;;
53714;SDS011;39608;55.630;37.864;2023-07-22T13:47:15;3.80;;;1.20;;
53714;SDS011;39608;55.630;37.864;2023-07-22T13:52:17;1.58;;;1.02;;
53714;SDS011;39608;55.630;37.864;2023-07-22T13:57:19;2.10;;;0.90;;
53714;SDS011;39608;55.630;37.864;2023-07-22T14:02:23;3.40;;;0.82;;
53714;SDS011;39608;55.630;37.864;2023-07-22T14:12:26;1.48;;;0.82;;
53714;SDS011;39608;55.630;37.864;2023-07-22T14:17:30;1.98;;;0.73;;
53714;SDS011;39608;55.630;37.864;2023-07-22T14:22:33;2.38;;;1.00;;
53714;SDS011;39608;55.630;37.864;2023-07-22T14:27:37;4.05;;;0.90;;
53714;SDS011;39608;55.630;37.864;2023-07-22T14:32:41;2.67;;;1.10;;
53714;SDS011;39608;55.630;37.864;2023-07-22T14:37:43;1.70;;;1.00;;
53714;SDS011;39608;55.630;37.864;2023-07-22T14:42:47;1.40;;;1.00;;
53714;SDS011;39608;55.630;37.864;2023-07-22T14:47:50;2.90;;;1.10;;
53714;SDS011;39608;55.630;37.864;2023-07-22T14:52:52;2.00;;;0.75;;
53714;SDS011;39608;55.630;37.864;2023-07-22T14:57:54;3.95;;;1.15;;
53714;SDS011;39608;55.630;37.864;2023-07-22T15:02:57;2.10;;;0.60;;
53714;SDS011;39608;55.630;37.864;2023-07-22T15:07:59;0.95;;;0.77;;
53714;SDS011;39608;55.630;37.864;2023-07-22T15:13:02;1.02;;;0.93;;
53714;SDS011;39608;55.630;37.864;2023-07-22T15:18:05;3.08;;;0.80;;
53714;SDS011;39608;55.630;37.864;2023-07-22T15:23:07;3.20;;;1.23;;
53714;SDS011;39608;55.630;37.864;2023-07-22T15:28:12;1.45;;;0.88;;
53714;SDS011;39608;55.630;37.864;2023-07-22T15:33:16;5.10;;;1.13;;
53714;SDS011;39608;55.630;37.864;2023-07-22T15:38:18;2.63;;;1.02;;
53714;SDS011;39608;55.630;37.864;2023-07-22T15:43:20;1.27;;;1.02;;
53714;SDS011;39608;55.630;37.864;2023-07-22T15:48:23;2.35;;;1.23;;
53714;SDS011;39608;55.630;37.864;2023-07-22T15:53:26;1.90;;;1.10;;
53714;SDS011;39608;55.630;37.864;2023-07-22T15:58:28;0.82;;;0.70;;
53714;SDS011;39608;55.630;37.864;2023-07-22T16:03:31;1.65;;;1.02;;
53714;SDS011;39608;55.630;37.864;2023-07-22T16:08:35;3.57;;;1.30;;
53714;SDS011;39608;55.630;37.864;2023-07-22T16:13:37;1.27;;;0.90;;
53714;SDS011;39608;55.630;37.864;2023-07-22T16:18:41;4.78;;;1.23;;
53714;SDS011;39608;55.630;37.864;2023-07-22T16:23:43;3.25;;;1.40;;
53714;SDS011;39608;55.630;37.864;2023-07-22T16:28:45;7.07;;;1.33;;
53714;SDS011;39608;55.630;37.864;2023-07-22T16:33:49;2.78;;;1.48;;
53714;SDS011;39608;55.630;37.864;2023-07-22T16:38:51;6.72;;;1.90;;
53714;SDS011;39608;55.630;37.864;2023-07-22T16:43:53;5.78;;;1.67;;
53714;SDS011;39608;55.630;37.864;2023-07-22T16:48:56;4.68;;;1.80;;
53714;SDS011;39608;55.630;37.864;2023-07-22T16:53:58;6.85;;;1.90;;
53714;SDS011;39608;55.630;37.864;2023-07-22T16:59:00;6.95;;;2.15;;
53714;SDS011;39608;55.630;37.864;2023-07-22T17:04:04;10.32;;;2.65;;
53714;SDS011;39608;55.630;37.864;2023-07-22T17:09:08;11.60;;;3.03;;
53714;SDS011;39608;55.630;37.864;2023-07-22T17:14:12;13.32;;;3.33;;
53714;SDS011;39608;55.630;37.864;2023-07-22T17:19:15;12.32;;;2.63;;
53714;SDS011;39608;55.630;37.864;2023-07-22T17:24:17;5.35;;;1.63;;
53714;SDS011;39608;55.630;37.864;2023-07-22T17:29:19;10.73;;;2.97;;
53714;SDS011;39608;55.630;37.864;2023-07-22T17:34:22;2.85;;;1.30;;
53714;SDS011;39608;55.630;37.864;2023-07-22T17:39:24;4.25;;;1.48;;
53714;SDS011;39608;55.630;37.864;2023-07-22T17:44:27;4.80;;;1.25;;
53714;SDS011;39608;55.630;37.864;2023-07-22T17:49:31;3.92;;;1.50;;
53714;SDS011;39608;55.630;37.864;2023-07-22T17:54:33;4.32;;;1.60;;
53714;SDS011;39608;55.630;37.864;2023-07-22T17:59:35;4.18;;;2.05;;
53714;SDS011;39608;55.630;37.864;2023-07-22T18:04:38;1.98;;;1.50;;
53714;SDS011;39608;55.630;37.864;2023-07-22T18:09:40;5.88;;;1.83;;
53714;SDS011;39608;55.630;37.864;2023-07-22T18:14:42;5.20;;;2.67;;
53714;SDS011;39608;55.630;37.864;2023-07-22T18:19:46;6.25;;;2.70;;
53714;SDS011;39608;55.630;37.864;2023-07-22T18:24:48;9.88;;;2.72;;
53714;SDS011;39608;55.630;37.864;2023-07-22T18:29:50;15.35;;;3.08;;
53714;SDS011;39608;55.630;37.864;2023-07-22T18:34:53;40.47;;;5.60;;
53714;SDS011;39608;55.630;37.864;2023-07-22T18:39:57;20.25;;;4.32;;
53714;SDS011;39608;55.630;37.864;2023-07-22T18:44:59;19.60;;;4.63;;
53714;SDS011;39608;55.630;37.864;2023-07-22T18:50:05;8.30;;;3.17;;
53714;SDS011;39608;55.630;37.864;2023-07-22T18:55:08;8.52;;;3.50;;
53714;SDS011;39608;55.630;37.864;2023-07-22T19:00:11;6.20;;;3.53;;
53714;SDS011;39608;55.630;37.864;2023-07-22T19:05:15;12.70;;;3.75;;
53714;SDS011;39608;55.630;37.864;2023-07-22T19:10:17;7.35;;;3.53;;
53714;SDS011;39608;55.630;37.864;2023-07-22T19:15:20;11.88;;;3.85;;
53714;SDS011;39608;55.630;37.864;2023-07-22T19:20:23;9.35;;;3.03;;
53714;SDS011;39608;55.630;37.864;2023-07-22T19:25:25;7.40;;;2.83;;
53714;SDS011;39608;55.630;37.864;2023-07-22T19:30:27;7.30;;;3.25;;
53714;SDS011;39608;55.630;37.864;2023-07-22T19:35:30;8.98;;;3.70;;
53714;SDS011;39608;55.630;37.864;2023-07-22T19:40:32;5.03;;;3.05;;
53714;SDS011;39608;55.630;37.864;2023-07-22T19:45:34;6.45;;;3.00;;
53714;SDS011;39608;55.630;37.864;2023-07-22T19:50:39;8.93;;;2.80;;
53714;SDS011;39608;55.630;37.864;2023-07-22T19:55:41;8.65;;;3.42;;
53714;SDS011;39608;55.630;37.864;2023-07-22T20:00:43;5.00;;;2.72;;
53714;SDS011;39608;55.630;37.864;2023-07-22T20:05:47;11.23;;;3.60;;
53714;SDS011;39608;55.630;37.864;2023-07-22T20:10:49;14.70;;;3.33;;
53714;SDS011;39608;55.630;37.864;2023-07-22T20:15:51;9.27;;;3.60;;
53714;SDS011;39608;55.630;37.864;2023-07-22T20:20:55;5.00;;;3.33;;
53714;SDS011;39608;55.630;37.864;2023-07-22T20:25:59;22.50;;;5.38;;
53714;SDS011;39608;55.630;37.864;2023-07-22T20:31:01;10.27;;;4.35;;
53714;SDS011;39608;55.630;37.864;2023-07-22T20:36:05;12.55;;;4.93;;
53714;SDS011;39608;55.630;37.864;2023-07-22T20:41:07;10.48;;;4.50;;
53714;SDS011;39608;55.630;37.864;2023-07-22T20:46:11;13.18;;;4.03;;
53714;SDS011;39608;55.630;37.864;2023-07-22T20:51:14;9.73;;;3.75;;
53714;SDS011;39608;55.630;37.864;2023-07-22T20:56:19;6.75;;;3.22;;
53714;SDS011;39608;55.630;37.864;2023-07-22T21:01:23;5.95;;;2.47;;
53714;SDS011;39608;55.630;37.864;2023-07-22T21:06:27;4.43;;;2.28;;
53714;SDS011;39608;55.630;37.864;2023-07-22T21:11:29;12.15;;;2.95;;
53714;SDS011;39608;55.630;37.864;2023-07-22T21:16:31;5.40;;;3.78;;
53714;SDS011;39608;55.630;37.864;2023-07-22T21:21:34;12.38;;;4.40;;
53714;SDS011;39608;55.630;37.864;2023-07-22T21:26:36;6.85;;;3.88;;
53714;SDS011;39608;55.630;37.864;2023-07-22T21:31:38;8.75;;;4.18;;
53714;SDS011;39608;55.630;37.864;2023-07-22T21:36:42;16.02;;;5.72;;
53714;SDS011;39608;55.630;37.864;2023-07-22T21:41:44;11.00;;;7.38;;
53714;SDS011;39608;55.630;37.864;2023-07-22T21:46:47;20.15;;;14.20;;
53714;SDS011;39608;55.630;37.864;2023-07-22T21:51:50;14.82;;;6.95;;
53714;SDS011;39608;55.630;37.864;2023-07-22T21:56:52;14.32;;;6.57;;
53714;SDS011;39608;55.630;37.864;2023-07-22T22:01:55;10.25;;;4.00;;
53714;SDS011;39608;55.630;37.864;2023-07-22T22:07:01;5.40;;;3.55;;
53714;SDS011;39608;55.630;37.864;2023-07-22T22:12:04;13.15;;;3.97;;
53714;SDS011;39608;55.630;37.864;2023-07-22T22:17:06;10.15;;;4.05;;
53714;SDS011;39608;55.630;37.864;2023-07-22T22:22:10;7.13;;;3.58;;
53714;SDS011;39608;55.630;37.864;2023-07-22T22:27:12;10.43;;;3.58;;
53714;SDS011;39608;55.630;37.864;2023-07-22T22:32:14;8.90;;;3.97;;
53714;SDS011;39608;55.630;37.864;2023-07-22T22:37:17;10.68;;;3.65;;
53714;SDS011;39608;55.630;37.864;2023-07-22T22:42:19;5.35;;;3.10;;
53714;SDS011;39608;55.630;37.864;2023-07-22T22:47:21;12.63;;;3.25;;
53714;SDS011;39608;55.630;37.864;2023-07-22T22:52:25;6.07;;;2.95;;
53714;SDS011;39608;55.630;37.864;2023-07-22T22:57:27;11.63;;;3.80;;
53714;SDS011;39608;55.630;37.864;2023-07-22T23:02:29;6.32;;;2.95;;
53714;SDS011;39608;55.630;37.864;2023-07-22T23:07:32;6.25;;;3.13;;
53714;SDS011;39608;55.630;37.864;2023-07-22T23:12:34;7.90;;;3.40;;
53714;SDS011;39608;55.630;37.864;2023-07-22T23:17:39;11.23;;;3.42;;
53714;SDS011;39608;55.630;37.864;2023-07-22T23:22:42;6.75;;;3.30;;
53714;SDS011;39608;55.630;37.864;2023-07-22T23:27:44;4.07;;;2.75;;
53714;SDS011;39608;55.630;37.864;2023-07-22T23:32:46;10.20;;;3.05;;
53714;SDS011;39608;55.630;37.864;2023-07-22T23:37:50;11.70;;;3.00;;
53714;SDS011;39608;55.630;37.864;2023-07-22T23:42:52;6.32;;;2.90;;
53714;SDS011;39608;55.630;37.864;2023-07-22T23:47:54;8.15;;;3.13;;
53714;SDS011;39608;55.630;37.864;2023-07-22T23:52:57;9.25;;;3.10;;
53714;SDS011;39608;55.630;37.864;2023-07-22T23:57:59;5.40;;;3.00;;
